< < Back
Terminal Aerodrome Forecast


Current Version              Previous Versions:   1  2  3  4  5  6  7  8  9  

Terminal Aerodrome Forecast

431
FTUS42 KFFC 190100 AAA
TAFPDK
TAF AMD
KPDK 190146Z 1902/1924 03009G16KT 4SM SHRA BR SCT020 OVC060
      TEMPO 1903/1905 BKN020 OVC060
     FM190500 04012G20KT 4SM -SHRA BR OVC009
     FM190800 04014G24KT 6SM -SHRA OVC009
     FM191200 03014G24KT 6SM -RA BKN018
     FM191900 04011G20KT P6SM BKN025=

Latest METAR

444
SAUS70 KWBC 190400 RRB
MTRPDK
METAR KPDK 190353Z 04009G15KT 10SM -RA SCT013 BKN028 OVC095 10/08 A3013
RMK AO2 SLP204 P0004 T01000078


USA.gov is the U.S. government's official web portal to all federal, state and local government web resources and services.